Time;durP1;ratioP1;P1;durP2;ratioP2;P2;SDS_P1;SDS_P2;PMS_P1;PMS_P2;Temp;Humidity;BMP_temperature;BMP_pressure;BME280_temperature;BME280_humidity;BME280_pressure;Samples;Min_cycle;Max_cycle;Signal;HPM_P1;HPM_P2
2022/03/15 00:01:33;;;;;;;;;8.50;6.75;;;;;;;;5052211;28;51186;-48
2022/03/15 00:04:18;;;;;;;;;8.50;7.75;;;;;;;;5058600;28;51010;-46
2022/03/15 00:07:02;;;;;;;;;8.25;8.00;;;;;;;;5052284;28;51179;-48
2022/03/15 00:09:47;;;;;;;;;6.25;4.25;;;;;;;;5059949;28;51131;-47
2022/03/15 00:12:32;;;;;;;;;10.50;7.00;;;;;;;;5045720;28;51509;-47
2022/03/15 00:15:16;;;;;;;;;12.75;8.50;;;;;;;;5042873;28;51151;-46
2022/03/15 00:18:13;;;;;;;;;17.25;10.50;;;;;;;;5044042;28;51046;-48
2022/03/15 00:20:58;;;;;;;;;10.50;6.00;;;;;;;;5046249;28;51111;-48
2022/03/15 00:23:42;;;;;;;;;11.75;9.25;;;;;;;;5060207;28;51047;-47
2022/03/15 00:26:28;;;;;;;;;12.25;9.00;;;;;;;;5053556;28;51413;-46
2022/03/15 00:29:16;;;;;;;;;13.50;7.25;;;;;;;;5046869;28;51431;-48
2022/03/15 00:32:08;;;;;;;;;11.00;8.00;;;;;;;;5049836;28;51055;-46
2022/03/15 00:34:52;;;;;;;;;12.00;9.00;;;;;;;;5060608;28;51157;-50
2022/03/15 00:37:37;;;;;;;;;10.50;8.25;;;;;;;;5059313;28;51088;-47
2022/03/15 00:40:22;;;;;;;;;10.00;7.50;;;;;;;;5055366;28;50985;-49
2022/03/15 00:43:06;;;;;;;;;12.50;7.00;;;;;;;;5051355;28;51105;-49
2022/03/15 00:45:51;;;;;;;;;8.00;7.50;;;;;;;;5045104;28;51120;-49
2022/03/15 00:48:37;;;;;;;;;11.00;8.00;;;;;;;;5040168;28;51077;-47
2022/03/15 00:51:24;;;;;;;;;11.75;8.25;;;;;;;;5047575;28;51534;-46
2022/03/15 00:54:09;;;;;;;;;11.25;7.00;;;;;;;;5040786;28;51497;-47
2022/03/15 00:56:53;;;;;;;;;8.50;7.50;;;;;;;;5041664;28;51144;-46
2022/03/15 00:59:39;;;;;;;;;10.50;6.25;;;;;;;;5044061;28;51099;-48
2022/03/15 01:02:23;;;;;;;;;9.50;7.00;;;;;;;;5041295;28;51075;-46
2022/03/15 01:05:23;;;;;;;;;8.75;7.00;;;;;;;;5053689;28;51113;-46
2022/03/15 01:08:08;;;;;;;;;8.75;7.50;;;;;;;;5046996;28;51304;-46
2022/03/15 01:10:54;;;;;;;;;9.25;8.25;;;;;;;;5057904;28;51082;-47
2022/03/15 01:13:43;;;;;;;;;11.50;8.50;;;;;;;;5050281;28;51106;-48
2022/03/15 01:16:31;;;;;;;;;13.25;7.25;;;;;;;;5057464;28;51579;-48
2022/03/15 01:19:16;;;;;;;;;10.75;7.00;;;;;;;;5047485;28;51130;-47
2022/03/15 01:22:04;;;;;;;;;10.00;7.75;;;;;;;;5040468;28;51188;-46
2022/03/15 01:24:49;;;;;;;;;10.75;8.00;;;;;;;;5055334;28;51124;-48
2022/03/15 01:27:36;;;;;;;;;10.00;7.50;;;;;;;;5041337;28;51066;-47
2022/03/15 01:30:23;;;;;;;;;8.25;8.25;;;;;;;;5056026;28;51145;-46
2022/03/15 01:33:07;;;;;;;;;7.25;6.75;;;;;;;;5054329;28;51065;-51
2022/03/15 01:35:55;;;;;;;;;13.00;8.75;;;;;;;;5057427;28;51121;-48
2022/03/15 01:38:43;;;;;;;;;10.50;8.25;;;;;;;;5056280;28;51003;-48
2022/03/15 01:41:49;;;;;;;;;11.00;7.25;;;;;;;;5041088;28;51191;-46
2022/03/15 01:44:39;;;;;;;;;11.75;9.75;;;;;;;;5047296;28;51441;-45
2022/03/15 01:47:23;;;;;;;;;13.25;6.00;;;;;;;;5046620;28;51028;-45
2022/03/15 01:50:09;;;;;;;;;17.00;8.75;;;;;;;;5046044;28;51004;-47
2022/03/15 01:52:58;;;;;;;;;11.50;7.25;;;;;;;;5050906;28;51122;-48
2022/03/15 01:55:42;;;;;;;;;6.25;4.75;;;;;;;;5043295;28;51821;-47
2022/03/15 01:58:27;;;;;;;;;12.25;8.75;;;;;;;;5046693;28;51445;-47
2022/03/15 02:01:13;;;;;;;;;11.00;8.00;;;;;;;;5043416;28;51027;-50
2022/03/15 02:03:58;;;;;;;;;14.25;8.00;;;;;;;;5053105;28;50913;-49
2022/03/15 02:06:45;;;;;;;;;12.75;8.75;;;;;;;;5056739;28;51137;-47
2022/03/15 02:09:31;;;;;;;;;12.00;8.75;;;;;;;;5048446;28;51307;-47
2022/03/15 02:12:16;;;;;;;;;10.00;7.25;;;;;;;;5054619;28;51034;-47
2022/03/15 02:15:03;;;;;;;;;11.50;8.00;;;;;;;;5042572;28;51340;-47
2022/03/15 02:17:48;;;;;;;;;11.00;7.00;;;;;;;;5055949;28;51055;-48
2022/03/15 02:20:34;;;;;;;;;8.00;7.25;;;;;;;;5048131;28;51137;-48
2022/03/15 02:23:18;;;;;;;;;10.00;8.50;;;;;;;;5043304;28;51449;-46
2022/03/15 02:26:17;;;;;;;;;9.00;6.00;;;;;;;;5044918;28;51182;-50
2022/03/15 02:29:03;;;;;;;;;12.00;7.75;;;;;;;;5045445;28;51075;-48
2022/03/15 02:31:54;;;;;;;;;13.25;10.25;;;;;;;;5049396;28;51149;-48
2022/03/15 02:34:48;;;;;;;;;9.50;8.00;;;;;;;;5056391;28;51336;-48
2022/03/15 02:37:32;;;;;;;;;15.25;7.50;;;;;;;;5044135;28;51232;-50
2022/03/15 02:40:17;;;;;;;;;9.25;7.00;;;;;;;;5059738;28;51022;-49
2022/03/15 02:43:04;;;;;;;;;12.50;7.75;;;;;;;;5043303;28;51134;-50
2022/03/15 02:45:58;;;;;;;;;10.25;8.75;;;;;;;;5056647;28;51237;-46
2022/03/15 02:48:44;;;;;;;;;14.25;8.75;;;;;;;;5062883;28;51417;-48
2022/03/15 02:51:50;;;;;;;;;14.50;9.25;;;;;;;;5055496;28;51151;-48
2022/03/15 02:54:41;;;;;;;;;11.25;9.50;;;;;;;;5062273;28;51196;-50
2022/03/15 02:57:28;;;;;;;;;13.25;6.50;;;;;;;;5043597;28;51212;-47
2022/03/15 03:00:14;;;;;;;;;9.25;8.00;;;;;;;;5042762;28;51275;-47
2022/03/15 03:02:59;;;;;;;;;14.25;9.25;;;;;;;;5045809;28;51078;-46
2022/03/15 03:06:04;;;;;;;;;10.75;8.25;;;;;;;;5057199;28;51139;-47
2022/03/15 03:08:52;;;;;;;;;14.75;8.00;;;;;;;;5060753;28;51381;-47
2022/03/15 03:11:36;;;;;;;;;11.00;8.25;;;;;;;;5058657;28;51292;-47
2022/03/15 03:14:22;;;;;;;;;14.75;9.00;;;;;;;;5048531;28;51400;-47
2022/03/15 03:17:18;;;;;;;;;11.00;9.00;;;;;;;;5047751;28;51120;-46
2022/03/15 03:20:11;;;;;;;;;10.50;8.50;;;;;;;;5066868;27;51080;-50
2022/03/15 03:23:00;;;;;;;;;16.25;9.75;;;;;;;;5043675;28;51177;-47
2022/03/15 03:25:47;;;;;;;;;11.25;8.00;;;;;;;;5056002;28;51157;-47
2022/03/15 03:28:38;;;;;;;;;15.75;10.00;;;;;;;;5050047;28;51078;-47
2022/03/15 03:31:43;;;;;;;;;18.00;12.25;;;;;;;;5050757;28;51021;-48
2022/03/15 03:34:28;;;;;;;;;16.00;11.25;;;;;;;;5055939;28;51040;-47
2022/03/15 03:37:14;;;;;;;;;21.25;12.25;;;;;;;;5052115;28;51136;-47
2022/03/15 03:40:00;;;;;;;;;11.25;9.00;;;;;;;;5061075;28;51371;-50
2022/03/15 03:42:45;;;;;;;;;12.50;11.25;;;;;;;;5051297;28;51164;-49
2022/03/15 03:45:31;;;;;;;;;12.00;9.75;;;;;;;;5042230;28;51071;-45
2022/03/15 03:48:38;;;;;;;;;11.75;10.25;;;;;;;;5054691;28;51181;-46
2022/03/15 03:51:25;;;;;;;;;18.50;11.50;;;;;;;;5042769;28;51326;-48
2022/03/15 03:54:13;;;;;;;;;10.50;9.25;;;;;;;;5041321;28;51126;-49
2022/03/15 03:56:57;;;;;;;;;16.00;12.00;;;;;;;;5042492;28;51063;-50
2022/03/15 03:59:42;;;;;;;;;13.50;12.50;;;;;;;;5043178;28;51058;-46
2022/03/15 04:02:38;;;;;;;;;14.50;9.25;;;;;;;;5056676;28;51182;-47
2022/03/15 04:05:28;;;;;;;;;14.50;10.00;;;;;;;;5050662;28;51106;-47
2022/03/15 04:08:36;;;;;;;;;14.50;9.75;;;;;;;;5050294;28;51140;-46
2022/03/15 04:11:21;;;;;;;;;11.50;7.00;;;;;;;;5057910;28;51157;-47
2022/03/15 04:14:07;;;;;;;;;18.25;10.75;;;;;;;;5055937;28;51124;-48
2022/03/15 04:16:52;;;;;;;;;21.50;13.50;;;;;;;;5051254;28;51083;-47
2022/03/15 04:19:37;;;;;;;;;14.50;9.25;;;;;;;;5052565;28;51136;-48
2022/03/15 04:22:24;;;;;;;;;17.25;13.25;;;;;;;;5044185;28;51148;-48
2022/03/15 04:25:09;;;;;;;;;23.25;13.25;;;;;;;;5044625;28;51526;-47
2022/03/15 04:28:03;;;;;;;;;24.00;16.25;;;;;;;;5041221;28;51095;-49
2022/03/15 04:31:00;;;;;;;;;26.50;13.25;;;;;;;;5053288;28;51162;-48
2022/03/15 04:33:49;;;;;;;;;32.25;17.25;;;;;;;;5048406;28;51105;-50
2022/03/15 04:36:37;;;;;;;;;37.75;21.75;;;;;;;;5055723;28;51093;-48
2022/03/15 04:39:36;;;;;;;;;23.50;18.50;;;;;;;;5045494;28;51222;-48
2022/03/15 04:42:24;;;;;;;;;26.50;18.75;;;;;;;;5052672;28;51552;-46
2022/03/15 04:45:10;;;;;;;;;30.50;17.25;;;;;;;;5054412;28;51177;-45
2022/03/15 04:47:56;;;;;;;;;29.00;20.50;;;;;;;;5051291;28;51233;-47
2022/03/15 04:50:42;;;;;;;;;27.75;17.50;;;;;;;;5055404;28;51412;-48
2022/03/15 04:53:27;;;;;;;;;12.75;5.50;;;;;;;;5047819;28;51102;-46
2022/03/15 04:56:32;;;;;;;;;28.75;19.75;;;;;;;;5053808;28;51153;-46
2022/03/15 04:59:22;;;;;;;;;30.25;20.00;;;;;;;;5048071;28;51237;-46
2022/03/15 05:02:07;;;;;;;;;34.50;21.00;;;;;;;;5055591;28;50470;-47
2022/03/15 05:04:52;;;;;;;;;32.00;22.00;;;;;;;;5048702;28;51188;-46
2022/03/15 05:07:39;;;;;;;;;35.00;21.25;;;;;;;;5049326;28;51095;-48
2022/03/15 05:13:28;;;;;;;;;28.00;19.25;;;;;;;;5045649;28;51015;-48
2022/03/15 05:16:38;;;;;;;;;27.25;20.75;;;;;;;;5055421;28;51390;-47
2022/03/15 05:19:23;;;;;;;;;36.75;28.50;;;;;;;;5050872;28;51176;-48
2022/03/15 05:22:07;;;;;;;;;22.00;15.75;;;;;;;;5053709;28;51075;-49
2022/03/15 05:24:53;;;;;;;;;16.75;11.50;;;;;;;;5044989;28;51139;-48
2022/03/15 05:27:57;;;;;;;;;18.25;13.00;;;;;;;;5050502;28;51072;-45
2022/03/15 05:30:41;;;;;;;;;15.75;13.50;;;;;;;;5055877;28;51240;-51
2022/03/15 05:33:28;;;;;;;;;25.75;15.75;;;;;;;;5044902;28;52920;-49
2022/03/15 05:36:14;;;;;;;;;19.25;14.00;;;;;;;;5056284;28;51147;-49
2022/03/15 05:39:08;;;;;;;;;28.00;15.50;;;;;;;;5050098;28;51257;-49
2022/03/15 05:42:17;;;;;;;;;28.25;16.00;;;;;;;;5045567;28;51169;-48
2022/03/15 05:45:12;;;;;;;;;24.75;17.75;;;;;;;;5040908;28;51157;-47
2022/03/15 05:47:57;;;;;;;;;28.25;19.50;;;;;;;;5055589;28;51429;-49
2022/03/15 05:50:48;;;;;;;;;19.75;14.50;;;;;;;;5058126;28;51077;-51
2022/03/15 05:53:35;;;;;;;;;23.25;13.25;;;;;;;;5057524;28;51445;-49
2022/03/15 05:56:20;;;;;;;;;30.75;24.25;;;;;;;;5056100;28;51330;-49
2022/03/15 05:59:08;;;;;;;;;31.50;19.75;;;;;;;;5042635;28;51330;-49
2022/03/15 06:01:52;;;;;;;;;21.25;14.25;;;;;;;;5039173;28;51103;-46
2022/03/15 06:23:05;;;;;;;;;30.00;18.75;;;;;;;;4337508;32;51430;-84
2022/03/15 06:25:53;;;;;;;;;25.50;19.00;;;;;;;;5041590;28;51237;-86
2022/03/15 06:28:37;;;;;;;;;28.25;22.75;;;;;;;;5036160;28;51239;-87
2022/03/15 06:31:21;;;;;;;;;27.25;22.75;;;;;;;;5045330;28;51159;-84
2022/03/15 06:34:11;;;;;;;;;36.50;26.50;;;;;;;;5044678;28;51261;-84
2022/03/15 06:36:55;;;;;;;;;37.75;24.25;;;;;;;;5037200;28;51299;-84
2022/03/15 06:39:40;;;;;;;;;27.25;23.25;;;;;;;;5045444;28;51097;-84
2022/03/15 06:42:26;;;;;;;;;25.00;19.00;;;;;;;;5053281;28;52034;-89
2022/03/15 06:45:13;;;;;;;;;21.75;17.75;;;;;;;;5070588;28;50885;-89
2022/03/15 06:47:58;;;;;;;;;20.00;17.75;;;;;;;;5065066;28;50915;-91
2022/03/15 06:50:44;;;;;;;;;24.25;17.25;;;;;;;;5068691;28;50968;-91
2022/03/15 06:53:31;;;;;;;;;17.75;14.75;;;;;;;;5084766;28;51406;-90
2022/03/15 06:56:34;;;;;;;;;13.25;10.50;;;;;;;;5076425;28;50425;-92
2022/03/15 06:59:25;;;;;;;;;13.25;11.00;;;;;;;;5046165;22;51440;-44
2022/03/15 07:02:13;;;;;;;;;20.25;13.50;;;;;;;;4977284;28;51194;-46
2022/03/15 07:05:09;;;;;;;;;21.50;14.50;;;;;;;;4982049;28;51115;-46
2022/03/15 07:07:55;;;;;;;;;14.25;12.00;;;;;;;;4974683;28;51465;-45
2022/03/15 07:10:53;;;;;;;;;17.25;14.00;;;;;;;;4972680;28;51567;-53
2022/03/15 07:13:38;;;;;;;;;20.75;13.75;;;;;;;;4974046;28;51173;-54
2022/03/15 07:16:23;;;;;;;;;13.25;10.25;;;;;;;;4974644;28;51125;-51
2022/03/15 07:19:09;;;;;;;;;15.00;10.75;;;;;;;;4976134;28;51141;-48
2022/03/15 07:21:53;;;;;;;;;19.50;13.50;;;;;;;;4973005;28;51203;-51
2022/03/15 07:24:40;;;;;;;;;14.25;10.75;;;;;;;;4962534;28;51034;-51
2022/03/15 07:27:25;;;;;;;;;14.50;9.00;;;;;;;;4959317;28;51149;-49
2022/03/15 07:30:11;;;;;;;;;16.25;11.50;;;;;;;;4962305;28;51158;-50
2022/03/15 07:32:59;;;;;;;;;16.00;8.25;;;;;;;;4960056;28;51433;-47
2022/03/15 07:35:43;;;;;;;;;14.75;9.25;;;;;;;;4959707;28;51577;-52
2022/03/15 07:38:28;;;;;;;;;16.00;10.00;;;;;;;;4967783;28;51117;-47
2022/03/15 07:41:16;;;;;;;;;15.75;11.50;;;;;;;;4972769;28;51038;-49
2022/03/15 07:44:02;;;;;;;;;9.75;9.75;;;;;;;;4981658;28;51117;-52
2022/03/15 07:47:07;;;;;;;;;9.75;9.50;;;;;;;;4968030;28;51151;-53
2022/03/15 07:49:53;;;;;;;;;14.75;9.50;;;;;;;;4961319;28;51510;-50
2022/03/15 07:52:37;;;;;;;;;15.25;12.25;;;;;;;;4962135;28;51119;-53
2022/03/15 07:55:22;;;;;;;;;17.50;10.75;;;;;;;;4961151;28;51200;-51
2022/03/15 07:58:07;;;;;;;;;16.00;10.00;;;;;;;;4959723;28;51219;-52
2022/03/15 08:01:02;;;;;;;;;10.25;10.00;;;;;;;;4961377;28;51191;-58
2022/03/15 08:03:49;;;;;;;;;15.25;11.00;;;;;;;;4959140;28;51170;-51
2022/03/15 08:06:35;;;;;;;;;10.00;9.50;;;;;;;;4961592;28;51118;-51
2022/03/15 08:09:19;;;;;;;;;13.50;11.50;;;;;;;;4965845;28;51486;-52
2022/03/15 08:12:07;;;;;;;;;11.75;9.25;;;;;;;;4979185;28;51164;-49
2022/03/15 08:15:01;;;;;;;;;15.00;9.75;;;;;;;;4962643;28;51597;-50
2022/03/15 08:17:46;;;;;;;;;17.00;13.00;;;;;;;;4958491;28;51216;-53
2022/03/15 08:20:33;;;;;;;;;14.25;11.25;;;;;;;;4947768;28;51657;-53
2022/03/15 08:23:20;;;;;;;;;11.75;9.75;;;;;;;;4956086;28;51607;-49
2022/03/15 08:26:05;;;;;;;;;24.00;12.00;;;;;;;;4961181;28;51163;-52
2022/03/15 08:28:52;;;;;;;;;14.25;9.50;;;;;;;;4960107;28;51100;-51
2022/03/15 08:31:39;;;;;;;;;14.75;10.50;;;;;;;;4959203;28;51190;-55
2022/03/15 08:34:24;;;;;;;;;14.50;12.25;;;;;;;;4959956;28;51565;-51
2022/03/15 08:37:10;;;;;;;;;14.50;10.50;;;;;;;;4960789;28;51226;-48
2022/03/15 08:39:55;;;;;;;;;12.75;9.75;;;;;;;;4958383;28;51392;-52
2022/03/15 08:42:42;;;;;;;;;17.50;11.25;;;;;;;;4960955;28;51103;-55
2022/03/15 08:45:29;;;;;;;;;17.00;11.50;;;;;;;;4961221;28;51115;-50
2022/03/15 08:48:17;;;;;;;;;9.00;8.75;;;;;;;;4960367;28;51206;-51
2022/03/15 08:51:23;;;;;;;;;11.00;10.75;;;;;;;;4960853;28;51297;-49
2022/03/15 08:54:09;;;;;;;;;8.00;8.00;;;;;;;;4960357;28;51220;-51
2022/03/15 08:57:05;;;;;;;;;16.25;9.00;;;;;;;;4961070;28;51204;-48
2022/03/15 08:59:49;;;;;;;;;9.50;9.00;;;;;;;;4958042;28;51576;-52
2022/03/15 09:02:35;;;;;;;;;18.25;8.50;;;;;;;;4960577;28;51268;-48
2022/03/15 09:05:20;;;;;;;;;18.00;12.25;;;;;;;;4960610;28;51212;-54
2022/03/15 09:08:16;;;;;;;;;15.50;7.50;;;;;;;;4960191;28;51186;-54
2022/03/15 09:11:03;;;;;;;;;13.25;11.75;;;;;;;;4960751;28;51070;-51
2022/03/15 09:13:49;;;;;;;;;12.25;8.00;;;;;;;;4959612;28;51018;-54
2022/03/15 09:16:34;;;;;;;;;12.75;8.00;;;;;;;;4960528;28;51377;-50
2022/03/15 09:19:22;;;;;;;;;14.50;8.75;;;;;;;;4959056;28;51043;-52
2022/03/15 09:22:09;;;;;;;;;12.75;9.25;;;;;;;;4959632;28;51118;-52
2022/03/15 09:25:03;;;;;;;;;8.25;7.00;;;;;;;;4953893;28;51534;-51
2022/03/15 09:27:50;;;;;;;;;16.00;8.50;;;;;;;;4958485;28;51184;-51
2022/03/15 09:30:35;;;;;;;;;14.75;8.50;;;;;;;;4959215;28;51558;-55
2022/03/15 09:33:24;;;;;;;;;13.75;7.00;;;;;;;;4956805;28;51104;-53
2022/03/15 09:36:18;;;;;;;;;11.25;9.50;;;;;;;;4958414;28;51200;-52
2022/03/15 09:39:07;;;;;;;;;10.00;6.75;;;;;;;;4958929;28;51574;-55
2022/03/15 09:42:06;;;;;;;;;11.50;7.25;;;;;;;;4960348;28;51501;-49
2022/03/15 09:45:00;;;;;;;;;10.75;8.00;;;;;;;;4957430;28;51220;-48
2022/03/15 09:48:08;;;;;;;;;14.50;10.00;;;;;;;;4961644;28;51108;-54
2022/03/15 09:50:53;;;;;;;;;17.75;12.75;;;;;;;;4975354;28;51986;-52
2022/03/15 09:53:43;;;;;;;;;13.75;7.50;;;;;;;;4960782;28;51101;-48
2022/03/15 09:56:28;;;;;;;;;9.25;7.75;;;;;;;;4958383;28;51553;-48
2022/03/15 09:59:16;;;;;;;;;12.00;6.25;;;;;;;;4957904;28;51252;-56
2022/03/15 10:02:13;;;;;;;;;12.25;5.75;;;;;;;;4956274;28;51174;-51
2022/03/15 10:05:04;;;;;;;;;10.25;8.25;;;;;;;;4949876;28;51884;-52
2022/03/15 10:08:09;;;;;;;;;13.75;9.75;;;;;;;;4951570;28;51113;-53
2022/03/15 10:11:02;;;;;;;;;10.00;5.75;;;;;;;;4956179;28;51120;-50
2022/03/15 10:13:53;;;;;;;;;12.75;7.00;;;;;;;;4958605;28;51403;-50
2022/03/15 10:17:06;;;;;;;;;11.00;4.25;;;;;;;;4958844;28;51250;-51
2022/03/15 10:19:52;;;;;;;;;13.75;10.00;;;;;;;;4956761;28;51087;-51
2022/03/15 10:22:36;;;;;;;;;12.00;7.75;;;;;;;;4956901;28;51226;-53
2022/03/15 10:25:22;;;;;;;;;13.25;7.25;;;;;;;;4955378;28;51122;-53
2022/03/15 10:28:10;;;;;;;;;9.50;8.00;;;;;;;;4957766;28;51173;-47
2022/03/15 10:31:02;;;;;;;;;14.00;8.50;;;;;;;;4956248;28;51437;-51
2022/03/15 10:34:00;;;;;;;;;9.75;6.25;;;;;;;;4951892;28;51115;-49
2022/03/15 10:36:46;;;;;;;;;7.50;6.00;;;;;;;;4954654;28;51185;-50
2022/03/15 10:39:31;;;;;;;;;10.50;5.75;;;;;;;;4954208;28;51222;-47
2022/03/15 10:42:37;;;;;;;;;13.25;7.25;;;;;;;;4956893;28;51438;-49
2022/03/15 10:45:21;;;;;;;;;14.50;9.50;;;;;;;;4957267;28;51176;-49
2022/03/15 10:48:14;;;;;;;;;9.50;7.50;;;;;;;;4957135;28;51150;-52
2022/03/15 10:51:10;;;;;;;;;12.00;8.50;;;;;;;;4956935;28;51160;-56
2022/03/15 10:54:00;;;;;;;;;25.75;19.25;;;;;;;;4959523;28;51224;-49
2022/03/15 10:57:11;;;;;;;;;14.00;10.75;;;;;;;;4957717;28;51426;-47
2022/03/15 11:00:03;;;;;;;;;10.25;7.00;;;;;;;;4960615;28;51206;-49
2022/03/15 11:02:50;;;;;;;;;4.50;3.75;;;;;;;;4959105;28;51253;-50
2022/03/15 11:05:41;;;;;;;;;13.75;8.00;;;;;;;;4958802;28;51157;-48
2022/03/15 11:08:27;;;;;;;;;5.50;4.25;;;;;;;;4959902;28;52413;-51
2022/03/15 11:11:22;;;;;;;;;7.50;7.00;;;;;;;;4960360;28;51127;-47
2022/03/15 11:14:08;;;;;;;;;8.25;5.75;;;;;;;;4960410;28;51156;-53
2022/03/15 11:17:14;;;;;;;;;9.00;7.75;;;;;;;;4960423;28;51142;-50
2022/03/15 11:19:59;;;;;;;;;9.50;9.00;;;;;;;;4962545;28;51155;-51
2022/03/15 11:22:44;;;;;;;;;14.50;9.25;;;;;;;;4961397;28;51214;-49
2022/03/15 11:25:34;;;;;;;;;10.50;8.50;;;;;;;;4964196;28;51285;-50
2022/03/15 11:28:21;;;;;;;;;17.75;10.50;;;;;;;;4958918;28;51988;-47
2022/03/15 11:31:12;;;;;;;;;10.25;7.25;;;;;;;;4961092;28;51532;-49
2022/03/15 11:34:08;;;;;;;;;8.50;7.00;;;;;;;;4959619;28;51071;-51
2022/03/15 11:36:54;;;;;;;;;13.00;8.50;;;;;;;;4959334;28;51183;-47
2022/03/15 11:39:40;;;;;;;;;10.75;6.50;;;;;;;;4960439;28;51083;-49
2022/03/15 11:42:25;;;;;;;;;10.75;8.50;;;;;;;;4959436;28;51038;-52
2022/03/15 11:45:10;;;;;;;;;13.25;7.00;;;;;;;;4960614;28;51122;-57
2022/03/15 11:48:06;;;;;;;;;14.00;7.00;;;;;;;;4961200;28;51097;-53
2022/03/15 11:50:55;;;;;;;;;9.75;7.75;;;;;;;;4968985;28;51411;-47
2022/03/15 11:53:58;;;;;;;;;7.75;6.25;;;;;;;;4969732;28;51192;-50
2022/03/15 11:56:56;;;;;;;;;11.00;8.00;;;;;;;;4965039;28;51050;-48
2022/03/15 11:59:47;;;;;;;;;8.25;8.25;;;;;;;;4960658;28;51071;-54
2022/03/15 12:02:54;;;;;;;;;7.00;7.00;;;;;;;;4957813;28;52094;-50
2022/03/15 12:06:00;;;;;;;;;13.75;7.50;;;;;;;;4960849;28;51174;-47
2022/03/15 12:08:51;;;;;;;;;11.00;7.50;;;;;;;;4958314;28;51149;-52
2022/03/15 12:11:56;;;;;;;;;9.25;6.00;;;;;;;;4956158;28;51169;-51
2022/03/15 12:14:45;;;;;;;;;7.50;5.00;;;;;;;;4959908;28;51190;-53
2022/03/15 12:17:39;;;;;;;;;10.25;7.50;;;;;;;;4957740;28;51233;-47
2022/03/15 12:20:25;;;;;;;;;8.50;6.00;;;;;;;;4957575;28;51595;-50
2022/03/15 12:23:19;;;;;;;;;9.75;6.75;;;;;;;;4957576;28;51341;-50
2022/03/15 12:26:26;;;;;;;;;7.25;6.00;;;;;;;;4959654;28;51455;-50
2022/03/15 12:29:16;;;;;;;;;11.00;9.50;;;;;;;;4958694;28;51134;-55
2022/03/15 12:32:31;;;;;;;;;9.75;6.75;;;;;;;;4959689;28;51491;-56
2022/03/15 12:35:37;;;;;;;;;8.25;8.00;;;;;;;;4952938;28;51174;-49
2022/03/15 12:39:00;;;;;;;;;6.50;6.00;;;;;;;;4959104;28;51243;-51
2022/03/15 12:41:47;;;;;;;;;8.00;3.75;;;;;;;;4954202;28;51474;-52
2022/03/15 12:45:01;;;;;;;;;8.75;6.00;;;;;;;;4954709;28;51491;-49
2022/03/15 12:47:47;;;;;;;;;9.25;4.50;;;;;;;;4953024;28;51210;-56
2022/03/15 12:50:32;;;;;;;;;12.50;7.00;;;;;;;;4951589;28;51106;-49
2022/03/15 12:53:16;;;;;;;;;10.50;7.25;;;;;;;;4955837;28;51166;-55
2022/03/15 12:56:02;;;;;;;;;12.25;5.00;;;;;;;;4958675;28;51095;-49
2022/03/15 12:58:53;;;;;;;;;5.75;5.00;;;;;;;;4956370;28;51395;-50
2022/03/15 13:01:40;;;;;;;;;7.25;4.25;;;;;;;;4958366;28;52047;-49
2022/03/15 13:04:25;;;;;;;;;10.00;5.50;;;;;;;;4960323;28;51486;-50
2022/03/15 13:07:10;;;;;;;;;11.25;6.00;;;;;;;;4957859;28;51229;-55
2022/03/15 13:10:00;;;;;;;;;15.75;7.25;;;;;;;;4958068;28;51221;-50
2022/03/15 13:12:45;;;;;;;;;10.25;5.00;;;;;;;;4959061;28;51597;-57
2022/03/15 13:15:29;;;;;;;;;6.25;6.25;;;;;;;;4959463;28;51189;-52
2022/03/15 13:18:19;;;;;;;;;9.25;5.50;;;;;;;;4958437;28;51434;-51
2022/03/15 13:21:07;;;;;;;;;11.00;5.50;;;;;;;;4962787;28;51655;-54
2022/03/15 13:24:11;;;;;;;;;6.50;6.00;;;;;;;;4962608;28;51168;-50
2022/03/15 13:26:57;;;;;;;;;15.50;7.25;;;;;;;;4957497;28;51164;-47
2022/03/15 13:29:46;;;;;;;;;10.25;6.50;;;;;;;;4956418;28;51543;-55
2022/03/15 13:32:50;;;;;;;;;9.00;5.50;;;;;;;;4954086;28;51219;-53
2022/03/15 13:35:35;;;;;;;;;10.00;5.00;;;;;;;;4956722;28;51239;-51
2022/03/15 13:38:26;;;;;;;;;7.00;4.25;;;;;;;;4956574;28;51175;-47
2022/03/15 13:41:12;;;;;;;;;8.75;5.75;;;;;;;;4956747;28;51546;-54
2022/03/15 13:44:06;;;;;;;;;7.50;5.00;;;;;;;;4955099;28;51197;-53
2022/03/15 13:46:52;;;;;;;;;9.50;8.00;;;;;;;;4958738;28;51131;-55
2022/03/15 13:49:50;;;;;;;;;6.75;6.75;;;;;;;;4958801;28;51080;-53
2022/03/15 13:52:39;;;;;;;;;11.50;6.00;;;;;;;;4957792;28;50980;-52
2022/03/15 13:55:26;;;;;;;;;10.00;6.00;;;;;;;;4958000;28;51147;-49
2022/03/15 13:58:37;;;;;;;;;12.75;7.75;;;;;;;;4956297;28;51125;-51
2022/03/15 14:01:22;;;;;;;;;9.00;7.00;;;;;;;;4947603;28;51145;-49
2022/03/15 14:04:10;;;;;;;;;10.25;6.25;;;;;;;;4956497;28;51134;-52
2022/03/15 14:06:58;;;;;;;;;13.25;6.75;;;;;;;;4957485;28;51221;-55
2022/03/15 14:09:42;;;;;;;;;11.25;6.00;;;;;;;;4956784;28;51538;-49
2022/03/15 14:12:33;;;;;;;;;13.00;8.75;;;;;;;;4956523;28;51109;-50
2022/03/15 14:15:19;;;;;;;;;8.25;7.00;;;;;;;;4948225;28;51494;-57
2022/03/15 14:18:04;;;;;;;;;7.50;5.50;;;;;;;;4944628;28;51234;-52
2022/03/15 14:20:49;;;;;;;;;7.75;3.75;;;;;;;;4951286;28;51044;-53
2022/03/15 14:23:34;;;;;;;;;13.25;8.25;;;;;;;;4950870;28;51600;-51
2022/03/15 14:26:24;;;;;;;;;13.50;7.00;;;;;;;;4949681;28;51409;-53
2022/03/15 14:29:19;;;;;;;;;11.25;6.00;;;;;;;;4947065;28;51282;-54
2022/03/15 14:32:26;;;;;;;;;8.75;7.25;;;;;;;;4967308;28;51064;-55
2022/03/15 14:35:15;;;;;;;;;14.50;8.00;;;;;;;;4962694;28;51640;-51
2022/03/15 14:38:05;;;;;;;;;9.00;5.50;;;;;;;;4958835;28;51351;-50
2022/03/15 14:40:54;;;;;;;;;7.00;6.25;;;;;;;;4960228;28;51663;-50
2022/03/15 14:43:39;;;;;;;;;10.25;7.00;;;;;;;;4959616;28;51224;-48
2022/03/15 14:46:25;;;;;;;;;7.25;6.25;;;;;;;;4960528;28;51110;-47
2022/03/15 14:49:11;;;;;;;;;7.50;6.00;;;;;;;;4960322;28;51179;-53
2022/03/15 14:51:59;;;;;;;;;7.75;5.00;;;;;;;;4960269;28;51503;-49
2022/03/15 14:54:47;;;;;;;;;8.50;6.75;;;;;;;;4959895;28;51197;-51
2022/03/15 14:57:39;;;;;;;;;7.50;5.00;;;;;;;;4960777;28;51214;-52
2022/03/15 15:00:23;;;;;;;;;8.75;5.25;;;;;;;;4960038;28;51229;-52
2022/03/15 15:03:08;;;;;;;;;11.50;5.50;;;;;;;;4960180;28;51158;-54
2022/03/15 15:06:04;;;;;;;;;10.00;6.75;;;;;;;;4955998;28;51431;-49
2022/03/15 15:08:48;;;;;;;;;9.00;8.00;;;;;;;;4962318;28;51138;-48
2022/03/15 15:11:36;;;;;;;;;29.50;25.75;;;;;;;;4959842;28;51437;-49
2022/03/15 15:14:27;;;;;;;;;18.50;13.50;;;;;;;;4977784;28;51098;-48
2022/03/15 15:17:22;;;;;;;;;18.25;9.50;;;;;;;;4960238;28;51500;-52
2022/03/15 15:20:31;;;;;;;;;12.75;7.00;;;;;;;;4959054;28;51118;-50
2022/03/15 15:23:16;;;;;;;;;17.25;11.00;;;;;;;;4959171;28;51200;-47
2022/03/15 15:26:04;;;;;;;;;10.75;7.25;;;;;;;;4957995;28;51307;-51
2022/03/15 15:28:53;;;;;;;;;9.00;6.25;;;;;;;;4958009;28;51351;-56
2022/03/15 15:31:39;;;;;;;;;8.00;5.50;;;;;;;;4961807;28;51579;-54
2022/03/15 15:34:27;;;;;;;;;8.00;6.75;;;;;;;;4962941;28;51188;-48
2022/03/15 15:37:14;;;;;;;;;6.75;6.25;;;;;;;;4959245;28;51590;-49
2022/03/15 15:40:05;;;;;;;;;10.00;7.00;;;;;;;;4960146;28;51303;-54
2022/03/15 15:42:51;;;;;;;;;7.00;4.00;;;;;;;;4959506;28;51531;-52
2022/03/15 15:45:42;;;;;;;;;11.50;4.25;;;;;;;;4959577;28;51118;-48
2022/03/15 15:48:29;;;;;;;;;15.50;9.25;;;;;;;;4960913;28;51196;-53
2022/03/15 15:51:21;;;;;;;;;8.25;3.50;;;;;;;;4959278;28;51288;-51
2022/03/15 15:54:16;;;;;;;;;11.00;5.75;;;;;;;;4958332;28;51112;-55
2022/03/15 15:57:01;;;;;;;;;12.00;8.00;;;;;;;;4958718;28;52193;-52
2022/03/15 15:59:47;;;;;;;;;10.75;6.00;;;;;;;;4959653;28;51159;-49
2022/03/15 16:02:32;;;;;;;;;11.75;7.00;;;;;;;;4958934;28;51263;-54
2022/03/15 16:05:21;;;;;;;;;10.25;6.50;;;;;;;;4958404;28;51496;-49
2022/03/15 16:08:05;;;;;;;;;13.00;8.25;;;;;;;;4958712;28;51268;-52
2022/03/15 16:58:02;;;;;;;;;7.25;7.00;;;;;;;;4351034;32;51152;-50
2022/03/15 17:00:48;;;;;;;;;12.00;5.75;;;;;;;;5095366;27;51124;-49
2022/03/15 17:06:47;;;;;;;;;14.25;7.50;;;;;;;;5096679;27;51083;-48
2022/03/15 17:09:31;;;;;;;;;9.50;7.00;;;;;;;;5076669;27;51204;-48
2022/03/15 17:12:19;;;;;;;;;13.50;5.25;;;;;;;;5076673;27;51149;-47
2022/03/15 17:15:11;;;;;;;;;11.25;7.75;;;;;;;;5077168;27;51227;-54
2022/03/15 17:17:58;;;;;;;;;13.00;10.25;;;;;;;;5076587;27;51632;-57
2022/03/15 17:20:47;;;;;;;;;10.75;10.00;;;;;;;;5076964;27;51236;-49
2022/03/15 17:23:52;;;;;;;;;17.25;14.25;;;;;;;;5076785;27;51140;-49
2022/03/15 17:26:39;;;;;;;;;14.50;11.50;;;;;;;;5093736;27;51120;-54
2022/03/15 17:29:42;;;;;;;;;68.25;49.75;;;;;;;;5097000;27;51076;-52
2022/03/15 17:32:29;;;;;;;;;21.00;15.50;;;;;;;;5097218;27;51174;-56
2022/03/15 17:35:37;;;;;;;;;14.50;14.50;;;;;;;;5097278;27;51439;-51
2022/03/15 17:38:23;;;;;;;;;25.50;17.50;;;;;;;;5096794;27;51061;-53
2022/03/15 17:41:15;;;;;;;;;23.75;16.25;;;;;;;;5097390;27;52503;-48
2022/03/15 17:44:00;;;;;;;;;44.25;31.25;;;;;;;;5096489;27;51357;-49
2022/03/15 17:46:54;;;;;;;;;20.50;15.00;;;;;;;;5096543;27;51504;-53
2022/03/15 17:49:40;;;;;;;;;39.50;28.25;;;;;;;;5096671;27;51139;-51
2022/03/15 17:52:29;;;;;;;;;23.75;21.25;;;;;;;;5097170;27;51160;-49